EGPN/DND METAR and TAF weather

Enter ICAO airport designator
Station Type Date Time Source
EGPN METAR 2020/12/05 16:20 UTC NOAA

EGPN 051620Z 01006KT 9999 FEW020 BKN045 06/04 Q1001


Station Type Date Time Source
EGPN Decoded METAR 2020/12/05 16:20 UTC NOAA

Dundee / Riverside, United Kingdom (EGPN) 56-27N 003-01W
Dec 05, 2020 - 11:20 AM EST / 2020.12.05 1620 UTC
Wind: from the N (010 degrees) at 7 MPH (6 KT):0
Visibility: greater than 7 mile(s):0
Sky conditions: mostly cloudy
Temperature: 42 F (6 C)
Dew Point: 39 F (4 C)
Relative Humidity: 86%
Pressure (altimeter): 29.56 in. Hg (1001 hPa)
ob: EGPN 051620Z 01006KT 9999 FEW020 BKN045 06/04 Q1001
cycle: 16

Station Type Date Time Source
EGPN TAF 2019/01/15 18:56 UTC NOAA

TAF EGPN 151750Z 1518/1621 CNL

Example: see airport list